createdAt,value
2018-12-29T00:00:01.558Z,6.40
2018-12-29T00:02:29.787Z,6.40
2018-12-29T00:04:58.028Z,6.40
2018-12-29T00:07:26.249Z,6.40
2018-12-29T00:09:54.553Z,6.40
2018-12-29T00:12:22.782Z,6.40
2018-12-29T00:14:54.988Z,6.40
2018-12-29T00:17:21.023Z,6.50
2018-12-29T00:19:49.368Z,6.40
2018-12-29T00:22:17.594Z,6.40
2018-12-29T00:24:45.832Z,6.40
2018-12-29T00:27:14.131Z,6.40
2018-12-29T00:29:42.425Z,6.50
2018-12-29T00:32:10.689Z,6.50
2018-12-29T00:34:38.918Z,6.50
2018-12-29T00:37:08.702Z,6.50
2018-12-29T00:39:36.969Z,6.50
2018-12-29T00:42:05.192Z,6.50
2018-12-29T00:44:33.437Z,6.50
2018-12-29T00:47:01.664Z,6.50
2018-12-29T00:49:29.905Z,6.50
2018-12-29T00:51:58.124Z,6.50
2018-12-29T00:54:26.522Z,6.50
2018-12-29T00:56:54.753Z,6.50
2018-12-29T00:59:22.990Z,6.50
2018-12-29T01:01:51.305Z,6.50
2018-12-29T01:04:19.607Z,6.50
2018-12-29T01:06:47.854Z,6.50
2018-12-29T01:09:16.151Z,6.50
2018-12-29T01:11:44.414Z,6.50
2018-12-29T01:14:12.757Z,6.50
2018-12-29T01:16:40.979Z,6.50
2018-12-29T01:19:09.197Z,6.50
2018-12-29T01:21:37.445Z,6.50
2018-12-29T01:24:05.669Z,6.50
2018-12-29T01:26:33.900Z,6.50
2018-12-29T01:29:02.117Z,6.50
2018-12-29T01:31:30.365Z,6.50
2018-12-29T01:33:58.670Z,6.50
2018-12-29T01:36:26.909Z,6.50
2018-12-29T01:38:55.124Z,6.50
2018-12-29T01:41:23.361Z,6.50
2018-12-29T01:43:51.636Z,6.50
2018-12-29T01:46:19.902Z,6.50
2018-12-29T01:48:48.130Z,6.50
2018-12-29T01:51:16.362Z,6.50
2018-12-29T01:53:46.832Z,6.50
2018-12-29T01:56:15.097Z,6.50
2018-12-29T01:58:43.327Z,6.50
2018-12-29T02:01:11.559Z,6.50
2018-12-29T02:03:39.791Z,6.50
2018-12-29T02:06:08.035Z,6.50
2018-12-29T02:08:36.253Z,6.60
2018-12-29T02:11:04.509Z,6.60
2018-12-29T02:13:32.729Z,6.60
2018-12-29T02:16:00.961Z,6.60
2018-12-29T02:18:29.192Z,6.60
2018-12-29T02:20:57.429Z,6.60
2018-12-29T02:23:25.653Z,6.70
2018-12-29T02:25:54.297Z,6.70
2018-12-29T02:28:22.638Z,6.70
2018-12-29T02:30:50.862Z,6.70
2018-12-29T02:33:19.084Z,6.70
2018-12-29T02:35:47.314Z,6.70
2018-12-29T02:38:15.553Z,6.70
2018-12-29T02:40:43.815Z,6.70
2018-12-29T02:43:12.109Z,6.70
2018-12-29T02:45:40.339Z,6.70
2018-12-29T02:48:08.586Z,6.70
2018-12-29T02:50:36.815Z,6.70
2018-12-29T02:53:05.071Z,6.70
2018-12-29T02:55:33.291Z,6.70
2018-12-29T02:58:01.539Z,6.70
2018-12-29T03:00:29.781Z,6.70
2018-12-29T03:02:58.019Z,6.70
2018-12-29T03:05:26.239Z,6.70
2018-12-29T03:07:54.488Z,6.70
2018-12-29T03:10:22.714Z,6.70
2018-12-29T03:12:50.966Z,6.70
2018-12-29T03:15:19.190Z,6.70
2018-12-29T03:17:47.435Z,6.70
2018-12-29T03:20:15.654Z,6.70
2018-12-29T03:22:43.913Z,6.70
2018-12-29T03:25:12.123Z,6.70
2018-12-29T03:27:40.405Z,6.70
2018-12-29T03:30:08.654Z,6.70
2018-12-29T03:32:36.898Z,6.70
2018-12-29T03:35:05.561Z,6.70
2018-12-29T03:37:33.798Z,6.70
2018-12-29T03:40:02.038Z,6.60
2018-12-29T03:42:30.281Z,6.60
2018-12-29T03:44:58.515Z,6.60
2018-12-29T03:47:26.750Z,6.60
2018-12-29T03:49:54.974Z,6.60
2018-12-29T03:52:23.221Z,6.60
2018-12-29T03:54:51.432Z,6.60
2018-12-29T03:57:19.668Z,6.60
2018-12-29T03:59:47.901Z,6.60
2018-12-29T04:02:16.118Z,6.60
2018-12-29T04:04:44.368Z,6.70
2018-12-29T04:07:12.650Z,6.70
2018-12-29T04:09:40.863Z,6.70
2018-12-29T04:12:12.223Z,6.70
2018-12-29T04:14:40.466Z,6.70
2018-12-29T04:17:08.735Z,6.80
2018-12-29T04:19:36.974Z,6.70
2018-12-29T04:22:05.208Z,6.70
2018-12-29T04:24:33.654Z,6.70
2018-12-29T04:27:01.882Z,6.70
2018-12-29T04:29:30.124Z,6.70
2018-12-29T04:31:58.345Z,6.70
2018-12-29T04:34:26.587Z,6.70
2018-12-29T04:36:54.817Z,6.70
2018-12-29T04:39:23.041Z,6.70
2018-12-29T04:41:51.268Z,6.70
2018-12-29T04:44:19.562Z,6.70
2018-12-29T04:46:47.806Z,6.60
2018-12-29T04:49:16.048Z,6.60
2018-12-29T04:51:44.271Z,6.60
2018-12-29T04:54:12.513Z,6.60
2018-12-29T04:56:40.754Z,6.70
2018-12-29T04:59:08.994Z,6.70
2018-12-29T05:01:37.226Z,6.70
2018-12-29T05:04:05.501Z,6.70
2018-12-29T05:06:33.728Z,6.70
2018-12-29T05:09:01.969Z,6.70
2018-12-29T05:11:30.193Z,6.70
2018-12-29T05:13:58.446Z,6.80
2018-12-29T05:16:26.665Z,6.80
2018-12-29T05:18:54.904Z,6.80
2018-12-29T05:21:23.137Z,6.90
2018-12-29T05:23:51.365Z,6.90
2018-12-29T05:26:19.633Z,6.90
2018-12-29T05:28:47.849Z,6.90
2018-12-29T05:31:16.103Z,6.80
2018-12-29T05:33:44.320Z,6.90
2018-12-29T05:36:12.558Z,6.90
2018-12-29T05:38:40.785Z,6.90
2018-12-29T05:41:09.028Z,6.90
2018-12-29T05:43:37.282Z,6.90
2018-12-29T05:46:05.535Z,7.00
2018-12-29T05:48:33.762Z,7.00
2018-12-29T05:51:02.005Z,7.00
2018-12-29T05:53:30.237Z,7.00
2018-12-29T05:55:58.478Z,7.00
2018-12-29T05:58:26.700Z,7.00
2018-12-29T06:00:54.938Z,7.00
2018-12-29T06:03:23.166Z,7.00
2018-12-29T06:05:51.412Z,6.90
2018-12-29T06:08:19.713Z,6.90
2018-12-29T06:10:48.002Z,6.90
2018-12-29T06:13:16.222Z,6.90
2018-12-29T06:15:44.469Z,6.90
2018-12-29T06:18:12.707Z,6.90
2018-12-29T06:20:40.945Z,6.90
2018-12-29T06:23:09.170Z,6.90
2018-12-29T06:25:37.401Z,6.90
2018-12-29T06:28:05.645Z,6.90
2018-12-29T06:30:33.934Z,6.90
2018-12-29T06:33:02.182Z,6.90
2018-12-29T06:35:30.438Z,6.90
2018-12-29T06:37:58.675Z,6.90
2018-12-29T06:40:26.903Z,6.90
2018-12-29T06:42:55.141Z,7.00
2018-12-29T06:45:23.366Z,7.00
2018-12-29T06:47:51.602Z,7.00
2018-12-29T06:50:19.829Z,6.90
2018-12-29T06:52:48.075Z,6.90
2018-12-29T06:55:16.289Z,6.90
2018-12-29T06:57:44.533Z,6.90
2018-12-29T07:00:12.805Z,6.90
2018-12-29T07:02:41.125Z,6.90
2018-12-29T07:05:09.395Z,6.90
2018-12-29T07:07:37.644Z,6.90
2018-12-29T07:10:05.914Z,7.00
2018-12-29T07:12:34.157Z,7.00
2018-12-29T07:15:02.377Z,7.00
2018-12-29T07:17:30.633Z,7.00
2018-12-29T07:19:58.862Z,7.00
2018-12-29T07:22:27.115Z,7.00
2018-12-29T07:24:55.341Z,7.00
2018-12-29T07:27:23.596Z,7.00
2018-12-29T07:29:51.811Z,7.00
2018-12-29T07:32:20.045Z,7.00
2018-12-29T07:34:48.275Z,7.00
2018-12-29T07:37:16.507Z,7.00
2018-12-29T07:39:44.751Z,7.00
2018-12-29T07:42:13.044Z,7.00
2018-12-29T07:44:41.294Z,7.00
2018-12-29T07:47:09.512Z,7.00
2018-12-29T07:49:37.768Z,7.10
2018-12-29T07:52:05.991Z,7.10
2018-12-29T07:54:34.228Z,7.10
2018-12-29T07:57:02.521Z,7.10
2018-12-29T07:59:30.768Z,7.10
2018-12-29T08:01:58.991Z,7.10
2018-12-29T08:04:27.228Z,7.10
2018-12-29T08:06:55.453Z,7.10
2018-12-29T08:09:23.695Z,7.20
2018-12-29T08:11:51.922Z,7.10
2018-12-29T08:14:20.167Z,7.20
2018-12-29T08:16:48.480Z,7.10
2018-12-29T08:19:16.738Z,7.20
2018-12-29T08:21:44.964Z,7.20
2018-12-29T08:24:13.209Z,7.20
2018-12-29T08:26:41.449Z,7.20
2018-12-29T08:29:09.698Z,7.20
2018-12-29T08:31:38.087Z,7.20
2018-12-29T08:34:07.034Z,7.20
2018-12-29T08:36:35.379Z,7.20
2018-12-29T08:39:04.655Z,7.20
2018-12-29T08:41:32.950Z,7.20
2018-12-29T08:44:01.162Z,7.20
2018-12-29T08:46:29.407Z,7.20
2018-12-29T08:48:57.639Z,7.20
2018-12-29T08:51:25.872Z,7.20
2018-12-29T08:53:54.088Z,7.30
2018-12-29T08:56:22.349Z,7.30
2018-12-29T08:58:50.565Z,7.30
2018-12-29T09:01:18.845Z,7.30
2018-12-29T09:03:47.081Z,7.30
2018-12-29T09:06:15.314Z,7.30
2018-12-29T09:08:43.577Z,7.30
2018-12-29T09:11:11.823Z,7.40
2018-12-29T09:13:40.052Z,7.40
2018-12-29T09:16:08.305Z,7.50
2018-12-29T09:18:36.540Z,7.50
2018-12-29T09:21:04.770Z,7.60
2018-12-29T09:23:32.993Z,7.60
2018-12-29T09:26:01.249Z,7.70
2018-12-29T09:28:29.475Z,7.80
2018-12-29T09:30:57.714Z,7.80
2018-12-29T09:33:25.946Z,7.80
2018-12-29T09:35:54.238Z,7.80
2018-12-29T09:38:22.468Z,7.80
2018-12-29T09:40:50.862Z,7.80
2018-12-29T09:43:19.203Z,7.80
2018-12-29T09:45:47.426Z,7.80
2018-12-29T09:48:15.675Z,7.80
2018-12-29T09:50:43.957Z,7.80
2018-12-29T09:53:12.255Z,7.80
2018-12-29T09:55:40.517Z,7.80
2018-12-29T09:58:08.762Z,7.80
2018-12-29T10:00:36.978Z,7.80
2018-12-29T10:03:05.259Z,7.80
2018-12-29T10:05:33.482Z,7.80
2018-12-29T10:08:01.722Z,7.80
2018-12-29T10:10:29.947Z,7.80
2018-12-29T10:12:58.185Z,7.80
2018-12-29T10:15:26.421Z,7.80
2018-12-29T10:17:54.780Z,7.80
2018-12-29T10:20:23.079Z,7.80
2018-12-29T10:22:51.526Z,7.80
2018-12-29T10:25:19.868Z,7.90
2018-12-29T10:27:48.258Z,7.90
2018-12-29T10:30:16.482Z,7.90
2018-12-29T10:32:44.729Z,7.80
2018-12-29T10:35:13.086Z,7.90
2018-12-29T10:37:41.393Z,7.90
2018-12-29T10:40:09.636Z,7.90
2018-12-29T10:42:37.875Z,7.90
2018-12-29T10:45:06.101Z,7.90
2018-12-29T10:47:34.923Z,7.90
2018-12-29T10:50:03.366Z,8.00
2018-12-29T10:52:31.645Z,8.00
2018-12-29T10:55:00.268Z,8.00
2018-12-29T10:57:28.517Z,8.10
2018-12-29T10:59:56.841Z,8.10
2018-12-29T11:02:25.117Z,8.10
2018-12-29T11:04:53.346Z,8.10
2018-12-29T11:07:21.721Z,8.10
2018-12-29T11:09:50.031Z,8.20
2018-12-29T11:12:18.248Z,8.20
2018-12-29T11:14:46.485Z,8.20
2018-12-29T11:17:14.722Z,8.20
2018-12-29T11:19:42.962Z,8.20
2018-12-29T11:22:11.286Z,8.20
2018-12-29T11:24:39.540Z,8.20
2018-12-29T11:27:07.765Z,8.30
2018-12-29T11:29:36.001Z,8.30
2018-12-29T11:32:04.270Z,8.20
2018-12-29T11:34:35.271Z,8.30
2018-12-29T11:37:03.509Z,8.30
2018-12-29T11:39:31.746Z,8.30
2018-12-29T11:41:59.982Z,8.30
2018-12-29T11:44:28.218Z,8.30
2018-12-29T11:46:56.534Z,8.30
2018-12-29T11:49:24.780Z,8.40
2018-12-29T11:51:53.008Z,8.40
2018-12-29T11:54:21.224Z,8.40
2018-12-29T11:56:49.474Z,8.40
2018-12-29T11:59:17.798Z,8.40
2018-12-29T12:01:46.128Z,8.40
2018-12-29T12:04:14.365Z,8.50
2018-12-29T12:06:42.646Z,8.50
2018-12-29T12:09:10.966Z,8.50
2018-12-29T12:11:39.353Z,8.50
2018-12-29T12:14:07.669Z,8.50
2018-12-29T12:16:35.935Z,8.50
2018-12-29T12:19:05.825Z,8.50
2018-12-29T12:21:34.585Z,8.60
2018-12-29T12:24:02.880Z,8.50
2018-12-29T12:26:31.137Z,8.60
2018-12-29T12:28:59.496Z,8.60
2018-12-29T12:31:28.205Z,8.60
2018-12-29T12:33:56.447Z,8.60
2018-12-29T12:36:25.138Z,8.60
2018-12-29T12:38:53.369Z,8.60
2018-12-29T12:41:21.982Z,8.60
2018-12-29T12:43:50.276Z,8.60
2018-12-29T12:46:18.766Z,8.60
2018-12-29T12:48:47.339Z,8.60
2018-12-29T12:51:15.656Z,8.60
2018-12-29T12:53:43.881Z,8.70
2018-12-29T12:56:12.263Z,8.70
2018-12-29T12:58:40.594Z,8.70
2018-12-29T13:01:09.091Z,8.70
2018-12-29T13:03:37.421Z,8.70
2018-12-29T13:06:09.447Z,8.70
2018-12-29T13:08:37.765Z,8.80
2018-12-29T13:11:06.084Z,8.80
2018-12-29T13:13:34.387Z,8.80
2018-12-29T13:16:02.711Z,8.80
2018-12-29T13:18:30.945Z,8.80
2018-12-29T13:20:59.192Z,8.80
2018-12-29T13:23:27.429Z,8.80
2018-12-29T13:25:55.666Z,8.80
2018-12-29T13:28:25.571Z,8.80
2018-12-29T13:30:53.851Z,8.80
2018-12-29T13:33:22.151Z,8.90
2018-12-29T13:35:50.450Z,8.90
2018-12-29T13:38:18.712Z,8.90
2018-12-29T13:40:46.940Z,8.90
2018-12-29T13:43:15.303Z,8.90
2018-12-29T13:45:43.598Z,8.90
2018-12-29T13:48:11.953Z,8.90
2018-12-29T13:50:40.263Z,8.90
2018-12-29T13:53:08.521Z,8.90
2018-12-29T13:55:36.791Z,8.90
2018-12-29T13:58:05.030Z,8.90
2018-12-29T14:00:33.323Z,8.90
2018-12-29T14:03:01.673Z,8.90
2018-12-29T14:05:29.902Z,8.90
2018-12-29T14:07:58.126Z,9.00
2018-12-29T14:10:27.236Z,9.00
2018-12-29T14:12:55.510Z,9.00
2018-12-29T14:15:23.757Z,9.00
2018-12-29T14:17:51.983Z,9.00
2018-12-29T14:20:20.232Z,9.00
2018-12-29T14:22:48.644Z,9.00
2018-12-29T14:25:16.880Z,9.00
2018-12-29T14:27:45.267Z,9.00
2018-12-29T14:30:13.573Z,9.00
2018-12-29T14:32:41.886Z,9.00
2018-12-29T14:35:10.126Z,9.00
2018-12-29T14:37:38.356Z,9.00
2018-12-29T14:40:07.089Z,9.10
2018-12-29T14:42:35.363Z,9.10
2018-12-29T14:45:03.667Z,9.10
2018-12-29T14:47:31.889Z,9.10
2018-12-29T14:50:00.247Z,9.10
2018-12-29T14:52:28.597Z,9.10
2018-12-29T14:54:56.904Z,9.00
2018-12-29T14:57:25.127Z,9.00
2018-12-29T14:59:53.441Z,9.00
2018-12-29T15:02:21.661Z,9.00
2018-12-29T15:04:49.932Z,9.00
2018-12-29T15:07:18.250Z,9.00
2018-12-29T15:09:46.513Z,9.10
2018-12-29T15:12:14.734Z,9.10
2018-12-29T15:14:43.111Z,9.10
2018-12-29T15:17:11.565Z,9.10
2018-12-29T15:19:39.933Z,9.20
2018-12-29T15:22:08.167Z,9.10
2018-12-29T15:24:36.841Z,9.10
2018-12-29T15:27:05.152Z,9.10
2018-12-29T15:29:33.399Z,9.10
2018-12-29T15:32:02.052Z,9.10
2018-12-29T15:34:30.314Z,9.10
2018-12-29T15:36:58.618Z,9.10
2018-12-29T15:39:27.305Z,9.10
2018-12-29T15:41:55.585Z,9.10
2018-12-29T15:44:23.840Z,9.10
2018-12-29T15:46:52.445Z,9.10
2018-12-29T15:49:20.918Z,9.10
2018-12-29T15:51:49.717Z,9.10
2018-12-29T15:54:17.953Z,9.10
2018-12-29T15:56:46.292Z,9.10
2018-12-29T15:59:14.500Z,9.10
2018-12-29T16:01:42.865Z,9.20
2018-12-29T16:04:11.093Z,9.20
2018-12-29T16:06:39.333Z,9.20
2018-12-29T16:09:07.637Z,9.20
2018-12-29T16:11:36.068Z,9.20
2018-12-29T16:14:04.370Z,9.20
2018-12-29T16:16:32.614Z,9.20
2018-12-29T16:19:00.918Z,9.20
2018-12-29T16:21:29.530Z,9.20
2018-12-29T16:23:58.237Z,9.20
2018-12-29T16:26:26.547Z,9.20
2018-12-29T16:28:54.856Z,9.20
2018-12-29T16:31:23.224Z,9.20
2018-12-29T16:33:53.873Z,9.20
2018-12-29T16:36:21.483Z,9.20
2018-12-29T16:38:49.849Z,9.20
2018-12-29T16:41:18.169Z,9.30
2018-12-29T16:43:46.413Z,9.30
2018-12-29T16:46:14.749Z,9.30
2018-12-29T16:48:43.185Z,9.30
2018-12-29T16:51:11.582Z,9.30
2018-12-29T16:53:41.757Z,9.30
2018-12-29T16:56:10.086Z,9.30
2018-12-29T16:58:39.958Z,9.30
2018-12-29T17:01:08.298Z,9.30
2018-12-29T17:03:36.867Z,9.40
2018-12-29T17:06:05.185Z,9.40
2018-12-29T17:08:33.565Z,9.40
2018-12-29T17:11:01.808Z,9.40
2018-12-29T17:13:30.210Z,9.40
2018-12-29T17:15:58.440Z,9.40
2018-12-29T17:18:26.725Z,9.40
2018-12-29T17:20:55.027Z,9.40
2018-12-29T17:23:23.281Z,9.40
2018-12-29T17:25:51.526Z,9.40
2018-12-29T17:28:19.829Z,9.40
2018-12-29T17:30:48.077Z,9.50
2018-12-29T17:33:16.372Z,9.50
2018-12-29T17:35:44.599Z,9.50
2018-12-29T17:38:13.118Z,9.50
2018-12-29T17:40:41.427Z,9.50
2018-12-29T17:43:09.718Z,9.60
2018-12-29T17:45:38.039Z,9.60
2018-12-29T17:48:06.348Z,9.60
2018-12-29T17:50:35.205Z,9.60
2018-12-29T17:53:03.550Z,9.60
2018-12-29T17:55:31.926Z,9.60
2018-12-29T17:58:00.185Z,9.60
2018-12-29T18:00:30.236Z,9.70
2018-12-29T18:02:58.760Z,9.70
2018-12-29T18:05:27.098Z,9.70
2018-12-29T18:07:55.407Z,9.80
2018-12-29T18:10:24.022Z,9.80
2018-12-29T18:12:52.245Z,9.80
2018-12-29T18:15:20.574Z,9.80
2018-12-29T18:17:48.873Z,9.90
2018-12-29T18:20:17.201Z,9.90
2018-12-29T18:22:45.590Z,10.00
2018-12-29T18:25:13.943Z,10.00
2018-12-29T18:27:42.563Z,10.00
2018-12-29T18:30:10.917Z,10.00
2018-12-29T18:32:39.170Z,10.00
2018-12-29T18:35:07.507Z,10.10
2018-12-29T18:37:35.935Z,10.10
2018-12-29T18:40:06.105Z,10.10
2018-12-29T18:42:35.014Z,10.10
2018-12-29T18:45:03.325Z,10.10
2018-12-29T18:47:31.979Z,10.20
2018-12-29T18:50:00.360Z,10.20
2018-12-29T18:52:28.763Z,10.30
2018-12-29T18:54:56.998Z,10.30
2018-12-29T18:57:25.309Z,10.30
2018-12-29T18:59:56.292Z,10.40
2018-12-29T19:02:24.760Z,10.40
2018-12-29T19:04:53.258Z,10.50
2018-12-29T19:07:21.723Z,10.50
2018-12-29T19:09:50.128Z,10.50
2018-12-29T19:12:18.518Z,10.60
2018-12-29T19:14:47.015Z,10.60
2018-12-29T19:17:15.310Z,10.60
2018-12-29T19:19:46.375Z,10.60
2018-12-29T19:22:13.678Z,10.60
2018-12-29T19:24:42.090Z,10.70
2018-12-29T19:27:10.407Z,10.70
2018-12-29T19:29:39.109Z,10.70
2018-12-29T19:32:07.855Z,10.70
2018-12-29T19:34:36.437Z,10.80
2018-12-29T19:37:05.295Z,10.80
2018-12-29T19:39:33.914Z,10.80
2018-12-29T19:42:02.225Z,10.80
2018-12-29T19:44:30.961Z,10.80
2018-12-29T19:46:59.258Z,10.90
2018-12-29T19:49:27.841Z,10.90
2018-12-29T19:51:56.137Z,10.90
2018-12-29T19:54:24.644Z,10.90
2018-12-29T19:56:53.253Z,10.90
2018-12-29T19:59:23.459Z,10.90
2018-12-29T20:01:51.784Z,11.00
2018-12-29T20:04:20.610Z,11.00
2018-12-29T20:06:49.010Z,11.00
2018-12-29T20:09:17.253Z,10.90
2018-12-29T20:11:45.482Z,10.90
2018-12-29T20:14:14.067Z,10.90
2018-12-29T20:16:42.382Z,10.90
2018-12-29T20:19:10.626Z,10.80
2018-12-29T20:21:38.853Z,10.80
2018-12-29T20:24:07.205Z,10.70
2018-12-29T20:26:35.801Z,10.70
2018-12-29T20:29:04.181Z,10.70
2018-12-29T20:31:32.416Z,10.70
2018-12-29T20:34:00.693Z,10.60
2018-12-29T20:36:29.059Z,10.60
2018-12-29T20:38:57.346Z,10.60
2018-12-29T20:41:25.892Z,10.60
2018-12-29T20:43:54.354Z,10.60
2018-12-29T20:46:22.816Z,10.60
2018-12-29T20:48:51.125Z,10.60
2018-12-29T20:51:19.477Z,10.50
2018-12-29T20:53:48.236Z,10.50
2018-12-29T20:56:16.498Z,10.50
2018-12-29T20:58:44.811Z,10.50
2018-12-29T21:01:13.372Z,10.50
2018-12-29T21:03:41.681Z,10.50
2018-12-29T21:06:10.026Z,10.50
2018-12-29T21:08:38.346Z,10.50
2018-12-29T21:11:06.852Z,10.50
2018-12-29T21:13:35.172Z,10.50
2018-12-29T21:16:03.470Z,10.40
2018-12-29T21:18:31.697Z,10.40
2018-12-29T21:21:00.009Z,10.40
2018-12-29T21:23:28.343Z,10.40
2018-12-29T21:25:56.657Z,10.30
2018-12-29T21:28:24.968Z,10.30
2018-12-29T21:30:53.214Z,10.30
2018-12-29T21:33:21.440Z,10.30
2018-12-29T21:35:50.096Z,10.30
2018-12-29T21:38:18.363Z,10.30
2018-12-29T21:40:46.673Z,10.30
2018-12-29T21:43:14.982Z,10.20
2018-12-29T21:45:43.212Z,10.20
2018-12-29T21:48:11.441Z,10.20
2018-12-29T21:50:39.964Z,10.20
2018-12-29T21:53:08.267Z,10.20
2018-12-29T21:55:36.580Z,10.20
2018-12-29T21:58:04.861Z,10.20
2018-12-29T22:00:33.109Z,10.20
2018-12-29T22:03:01.334Z,10.20
2018-12-29T22:05:29.586Z,10.30
2018-12-29T22:07:58.019Z,10.30
2018-12-29T22:10:26.435Z,10.30
2018-12-29T22:12:54.746Z,10.30
2018-12-29T22:15:23.077Z,10.30
2018-12-29T22:17:51.544Z,10.40
2018-12-29T22:20:19.773Z,10.40
2018-12-29T22:22:48.158Z,10.40
2018-12-29T22:25:16.445Z,10.40
2018-12-29T22:27:44.786Z,10.40
2018-12-29T22:30:13.085Z,10.40
2018-12-29T22:32:41.645Z,10.40
2018-12-29T22:35:09.982Z,10.40
2018-12-29T22:37:38.335Z,10.50
2018-12-29T22:40:06.806Z,10.50
2018-12-29T22:42:35.178Z,10.50
2018-12-29T22:45:03.452Z,10.50
2018-12-29T22:47:31.782Z,10.50
2018-12-29T22:50:00.276Z,10.50
2018-12-29T22:52:28.516Z,10.50
2018-12-29T22:54:56.883Z,10.60
2018-12-29T22:57:26.228Z,10.60
2018-12-29T22:59:54.857Z,10.60
2018-12-29T23:02:23.201Z,10.60
2018-12-29T23:04:51.501Z,10.60
2018-12-29T23:07:20.142Z,10.60
2018-12-29T23:09:48.449Z,10.60
2018-12-29T23:12:16.756Z,10.60
2018-12-29T23:14:45.080Z,10.70
2018-12-29T23:17:13.592Z,10.70
2018-12-29T23:19:41.828Z,10.70
2018-12-29T23:22:10.130Z,10.70
2018-12-29T23:24:38.433Z,10.70
2018-12-29T23:27:06.666Z,10.70
2018-12-29T23:29:34.987Z,10.70
2018-12-29T23:32:03.328Z,10.70
2018-12-29T23:34:31.829Z,10.70
2018-12-29T23:37:00.170Z,10.70
2018-12-29T23:39:28.422Z,10.80
2018-12-29T23:41:56.929Z,10.80
2018-12-29T23:44:25.342Z,10.80
2018-12-29T23:46:53.741Z,10.80
2018-12-29T23:49:22.253Z,10.80
2018-12-29T23:51:50.773Z,10.80
2018-12-29T23:54:19.001Z,10.80
2018-12-29T23:56:47.731Z,10.80
2018-12-29T23:59:16.549Z,10.80
